Map

Track Data

SID SEASON NUMBER BASIN SUBBASIN NAME ISO_TIME NATURE LAT LON WMO_WIND WMO_PRES WMO_AGENCY TRACK_TYPE DIST2LAND LANDFALL IFLAG USA_AGENCY USA_ATCF_ID USA_LAT USA_LON USA_RECORD USA_STATUS USA_WIND USA_PRES USA_SSHS USA_R34_NE USA_R34_SE USA_R34_SW USA_R34_NW USA_R50_NE USA_R50_SE USA_R50_SW USA_R50_NW USA_R64_NE USA_R64_SE USA_R64_SW USA_R64_NW USA_POCI USA_ROCI USA_RMW USA_EYE TOKYO_LAT TOKYO_LON TOKYO_GRADE TOKYO_WIND TOKYO_PRES TOKYO_R50_DIR TOKYO_R50_LONG TOKYO_R50_SHORT TOKYO_R30_DIR TOKYO_R30_LONG TOKYO_R30_SHORT TOKYO_LAND CMA_LAT CMA_LON CMA_CAT CMA_WIND CMA_PRES HKO_LAT HKO_LON HKO_CAT HKO_WIND HKO_PRES NEWDELHI_LAT NEWDELHI_LON NEWDELHI_GRADE NEWDELHI_WIND NEWDELHI_PRES NEWDELHI_CI NEWDELHI_DP NEWDELHI_POCI REUNION_LAT REUNION_LON REUNION_TYPE REUNION_WIND REUNION_PRES REUNION_TNUM REUNION_CI REUNION_RMW REUNION_R34_NE REUNION_R34_SE REUNION_R34_SW REUNION_R34_NW REUNION_R50_NE REUNION_R50_SE REUNION_R50_SW REUNION_R50_NW REUNION_R64_NE REUNION_R64_SE REUNION_R64_SW REUNION_R64_NW BOM_LAT BOM_LON BOM_TYPE BOM_WIND BOM_PRES BOM_TNUM BOM_CI BOM_RMW BOM_R34_NE BOM_R34_SE BOM_R34_SW BOM_R34_NW BOM_R50_NE BOM_R50_SE BOM_R50_SW BOM_R50_NW BOM_R64_NE BOM_R64_SE BOM_R64_SW BOM_R64_NW BOM_ROCI BOM_POCI BOM_EYE BOM_POS_METHOD BOM_PRES_METHOD NADI_LAT NADI_LON NADI_CAT NADI_WIND NADI_PRES WELLINGTON_LAT WELLINGTON_LON WELLINGTON_WIND WELLINGTON_PRES DS824_LAT DS824_LON DS824_STAGE DS824_WIND DS824_PRES TD9636_LAT TD9636_LON TD9636_STAGE TD9636_WIND TD9636_PRES TD9635_LAT TD9635_LON TD9635_WIND TD9635_PRES TD9635_ROCI NEUMANN_LAT NEUMANN_LON NEUMANN_CLASS NEUMANN_WIND NEUMANN_PRES MLC_LAT MLC_LON MLC_CLASS MLC_WIND MLC_PRES USA_GUST BOM_GUST BOM_GUST_PER REUNION_GUST REUNION_GUST_PER USA_SEAHGT USA_SEARAD_NE USA_SEARAD_SE USA_SEARAD_SW USA_SEARAD_NW STORM_SPEED STORM_DIR
1997319S09180 1998 109 SP MM NUTE 1997-11-15 06:00:00 NR -9.00000 180.000 main 806 806 O_____________ jtwc_sh SH051998 -9.00000 -180.000 15 -1 14 277
1997319S09180 1998 109 SP MM NUTE 1997-11-15 09:00:00 NR -8.91008 179.300 main 819 819 P_____________ SH051998 -8.91008 179.300 15 -1 15 278
1997319S09180 1998 109 SP MM NUTE 1997-11-15 12:00:00 NR -8.80000 178.500 main 840 840 O_____________ jtwc_sh SH051998 -8.80000 178.500 15 -1 18 278
1997319S09180 1998 109 SP MM NUTE 1997-11-15 15:00:00 NR -8.65751 177.537 main 876 876 P_____________ SH051998 -8.65751 177.537 15 -1 20 279
1997319S09180 1998 109 SP MM NUTE 1997-11-15 18:00:00 NR -8.50000 176.500 main 932 932 O_____________ jtwc_sh SH051998 -8.50000 176.500 15 -1 21 279
1997319S09180 1998 109 SP MM NUTE 1997-11-15 21:00:00 NR -8.32760 175.447 main 997 997 P_____________ SH051998 -8.32760 175.447 15 -1 20 279
1997319S09180 1998 109 SP MM NUTE 1997-11-16 00:00:00 NR -8.20000 174.500 main 1046 1046 O_____________ jtwc_sh SH051998 -8.20000 174.500 15 -1 17 275
1997319S09180 1998 109 SP MM NUTE 1997-11-16 03:00:00 NR -8.17716 173.783 main 1054 1010 P_____________ SH051998 -8.17716 173.783 15 -1 13 270
1997319S09180 1998 109 SP MM NUTE 1997-11-16 06:00:00 NR -8.20000 173.200 main 1010 975 O_____________ jtwc_sh SH051998 -8.20000 173.200 15 -1 11 269
1997319S09180 1998 109 SP MM NUTE 1997-11-16 09:00:00 NR -8.19986 172.635 main 968 936 P_____________ SH051998 -8.19986 172.635 15 -1 11 270
1997319S09180 1998 109 SP MM NUTE 1997-11-16 12:00:00 NR -8.20000 172.100 main 936 905 O_____________ jtwc_sh SH051998 -8.20000 172.100 15 -1 11 271
1997319S09180 1998 109 SP MM NUTE 1997-11-16 15:00:00 NR -8.18493 171.550 main 899 871 P_____________ SH051998 -8.18493 171.550 17 -1 11 270
1997319S09180 1998 109 SP MM NUTE 1997-11-16 18:00:00 NR -8.20000 171.000 main 871 842 O_____________ jtwc_sh SH051998 -8.20000 171.000 20 -1 11 267
1997319S09180 1998 109 SP MM NUTE 1997-11-16 21:00:00 NR -8.24746 170.442 main 837 791 P_____________ SH051998 -8.24746 170.442 20 -1 11 260
1997319S09180 1998 109 SP MM NUTE 1997-11-17 00:00:00 NR -8.40000 169.900 main 791 737 O_____________ jtwc_sh SH051998 -8.40000 169.900 20 -1 12 246
1997319S09180 1998 109 SP MM NUTE 1997-11-17 03:00:00 NR -8.71246 169.378 main 737 675 P_____________ SH051998 -8.71246 169.378 20 -1 12 235
1997319S09180 1998 109 SP MM NUTE 1997-11-17 06:00:00 NR -9.10000 168.900 main 675 628 O_____________ jtwc_sh SH051998 -9.10000 168.900 20 -1 12 230
1997319S09180 1998 109 SP MM NUTE 1997-11-17 09:00:00 NR -9.45740 168.485 main 617 572 P_____________ SH051998 -9.45740 168.485 20 -1 11 228
1997319S09180 1998 109 SP MM NUTE 1997-11-17 12:00:00 NR -9.80000 168.100 main 572 528 O_____________ jtwc_sh SH051998 -9.80000 168.100 20 -1 10 230
1997319S09180 1998 109 SP MM NUTE 1997-11-17 15:00:00 NR -10.0999 167.715 main 528 487 P_____________ SH051998 -10.0999 167.715 22 -1 10 233
1997319S09180 1998 109 SP MM NUTE 1997-11-17 18:00:00 NR -10.4000 167.300 main 487 449 O_____________ jtwc_sh SH051998 -10.4000 167.300 25 -1 11 233
1997319S09180 1998 109 SP MM NUTE 1997-11-17 21:00:00 NR -10.7649 166.830 main 437 383 P_____________ SH051998 -10.7649 166.830 27 -1 17 244
1997319S09180 1998 109 SP MM NUTE 1997-11-18 00:00:00 TS -11.1500 165.750 25 1001 nadi main 383 323 O_____O_O___O_ jtwc_sh SH051998 -11.1000 166.300 30 -1 -11.2000 165.200 20 30 1001 2.50000 215 3 6 -11.2000 165.200 25 1001 -11.2000 165.200 25 1001 -11.2000 165.200 TC 25 1001 18 248
1997319S09180 1998 109 SP MM NUTE 1997-11-18 03:00:00 TS -11.4174 165.174 main 323 276 P_____PIP___P_ SH051998 -11.3074 165.722 30 -1 -11.4724 164.900 20 32 1000 215 -11.4724 164.900 25 1000 -11.4724 164.900 25 1000 -11.4724 164.900 TC 27 1000 12 245
1997319S09180 1998 109 SP MM NUTE 1997-11-18 06:00:00 TS -11.6500 164.650 25 999 nadi main 276 226 O_____O_O___O_ jtwc_sh SH051998 -11.5000 165.100 30 -1 -11.7000 164.500 30 35 999 3.00000 215 3 6 -11.7000 164.500 25 999 -11.7000 164.500 25 999 -11.7000 164.500 TC 30 999 12 249
1997319S09180 1998 109 SP MM NUTE 1997-11-18 09:00:00 TS -11.8432 164.048 main 216 187 P_____PIP___P_ SH051998 -11.7850 164.443 32 -1 -11.8577 163.950 30 35 997 174 -11.8577 163.950 30 997 -11.8577 163.950 30 997 -11.8577 163.950 TC 35 997 12 252
1997319S09180 1998 109 SP MM NUTE 1997-11-18 12:00:00 TS -12.0200 163.480 35 995 nadi main 187 169 O_____O_O___O_ jtwc_sh SH051998 -12.1000 163.800 35 0 -12.0000 163.400 30 35 995 3.00000 134 3 6 -12.0000 163.400 35 995 -12.0000 163.400 35 995 -12.0000 163.400 TC 40 995 10 251
1997319S09180 1998 109 SP MM NUTE 1997-11-18 15:00:00 TS -12.1874 163.048 main 174 169 P_____PIP___P_ SH051998 -12.3774 163.220 35 0 -12.1399 163.005 30 37 992 147 -12.1399 163.005 37 992 -12.1399 163.005 37 992 -12.1399 163.005 TC 42 992 9 240
1997319S09180 1998 109 SP MM NUTE 1997-11-18 18:00:00 TS -12.4600 162.700 40 990 nadi main 195 193 O_____O_O___O_ jtwc_sh SH051998 -12.7000 162.700 35 0 -12.4000 162.700 30 40 990 3.00000 161 3 6 -12.4000 162.700 40 990 -12.4000 162.700 40 990 -12.4000 162.700 TC 45 990 10 218
1997319S09180 1998 109 SP MM NUTE 1997-11-18 21:00:00 TS -12.9433 162.434 main 235 235 P_____PIP___P_ SH051998 -13.1274 162.220 40 0 -12.8972 162.487 30 42 986 174 -12.8972 162.487 47 986 -12.8972 162.487 47 986 -12.8972 162.487 TC 52 986 12 208
1997319S09180 1998 109 SP MM NUTE 1997-11-19 00:00:00 TS -13.5200 162.120 55 982 nadi main 302 302 O_____O_O___O_ jtwc_sh SH051998 -13.6000 161.800 45 0 -13.5000 162.200 30 45 982 3.00000 188 3 6 -13.5000 162.200 55 982 -13.5000 162.200 55 982 -13.5000 162.200 TC 60 982 14 216
1997319S09180 1998 109 SP MM NUTE 1997-11-19 03:00:00 TS -14.0818 161.578 main 370 370 P_____PIP___P_ SH051998 -14.0574 161.427 52 0 -14.0879 161.616 30 52 978 201 -14.0879 161.616 57 978 -14.0879 161.616 57 978 -14.0879 161.616 TC 65 978 15 225
1997319S09180 1998 109 SP MM NUTE 1997-11-19 06:00:00 TS -14.5800 161.020 60 975 nadi main 434 434 O_____O_O___O_ jtwc_sh SH051998 -14.5000 161.100 60 0 -14.6000 161.000 30 60 975 4.00000 215 3 6 -14.6000 161.000 60 975 -14.6000 161.000 60 975 -14.6000 161.000 TC 70 975 12 227
1997319S09180 1998 109 SP MM NUTE 1997-11-19 09:00:00 TS -14.9148 160.648 main 477 477 P_____PIP___P_ SH051998 -14.9149 160.792 62 0 -14.9147 160.612 30 60 975 215 -14.9147 160.612 60 975 -14.9147 160.612 60 975 -14.9147 160.612 TC 70 975 9 226
1997319S09180 1998 109 SP MM NUTE 1997-11-19 12:00:00 TS -15.2200 160.340 60 975 nadi main 518 518 O_____O_O___O_ jtwc_sh SH051998 -15.3000 160.500 65 1 -15.2000 160.300 30 60 975 4.00000 215 3 6 -15.2000 160.300 60 975 -15.2000 160.300 60 975 -15.2000 160.300 TC 70 975 10 221
1997319S09180 1998 109 SP EA NUTE 1997-11-19 15:00:00 TS -15.6635 159.975 main 582 582 P_____PIP___P_ SH051998 -15.6575 160.192 67 1 -15.6651 159.920 30 60 975 215 -15.6651 159.920 60 975 -15.6651 159.920 60 975 -15.6651 159.920 TC 70 975 11 217
1997319S09180 1998 109 SP EA NUTE 1997-11-19 18:00:00 TS -16.0800 159.660 60 975 bom main 635 635 O_____O_O___O_ jtwc_sh SH051998 -16.0000 159.900 70 1 -16.1000 159.600 30 60 975 4.00000 215 3 6 -16.1000 159.600 60 975 -16.1000 159.600 60 975 -16.1000 159.600 TC 70 975 8 217
1997319S09180 1998 109 SP EA NUTE 1997-11-19 21:00:00 TS -16.3264 159.464 main 652 645 P_____PIP___P_ SH051998 -16.3425 159.613 67 1 -16.3224 159.427 30 60 975 242 -16.3224 159.427 60 975 -16.3224 159.427 60 975 -16.3224 159.427 TC 70 975 6 215
1997319S09180 1998 109 SP EA NUTE 1997-11-20 00:00:00 TS -16.5400 159.320 60 975 bom main 653 639 O_____O_O___O_ jtwc_sh SH051998 -16.7000 159.400 65 1 -16.5000 159.300 30 60 975 4.00000 269 3 6 -16.5000 159.300 60 975 -16.5000 159.300 60 975 -16.5000 159.300 TC 70 975 6 213
1997319S09180 1998 109 SP EA NUTE 1997-11-20 03:00:00 TS -16.7970 159.151 main 639 630 P_____PIP___P_ SH051998 -17.0849 159.297 65 1 -16.7250 159.115 30 55 975 269 -16.7250 159.115 60 975 -16.7250 159.115 60 975 -16.7250 159.115 TC 70 975 7 207
1997319S09180 1998 109 SP EA NUTE 1997-11-20 06:00:00 TS -17.1800 158.980 50 975 bom main 630 613 O_____O_O___O_ jtwc_sh SH051998 -17.5000 159.300 65 1 -17.1000 158.900 30 50 975 3.50000 269 3 6 -17.1000 158.900 60 975 -17.1000 158.900 60 975 -17.1000 158.900 TC 70 975 11 200
1997319S09180 1998 109 SP EA NUTE 1997-11-20 09:00:00 TS -17.7926 158.775 main 613 599 P_____PIP___P_ SH051998 -17.9425 159.363 62 0 -17.7551 158.628 30 45 980 269 -17.7551 158.628 55 980 -17.7551 158.628 55 980 -17.7551 158.628 TC 62 980 14 195
1997319S09180 1998 109 SP EA NUTE 1997-11-20 12:00:00 TS -18.4800 158.620 40 985 bom main 601 580 O_____O_O___O_ jtwc_sh SH051998 -18.4000 159.500 60 0 -18.5000 158.400 30 40 985 3.00000 269 2 6 -18.5000 158.400 50 985 -18.5000 158.400 50 985 -18.5000 158.400 TC 55 985 13 188
1997319S09180 1998 109 SP EA NUTE 1997-11-20 15:00:00 TS -19.0829 158.573 main 580 569 P_____PIP___P_ SH051998 -18.8650 159.677 50 0 -19.1374 158.297 30 37 990 296 -19.1374 158.297 42 990 -19.1374 158.297 42 990 -19.1374 158.297 TC 47 990 12 183
1997319S09180 1998 109 SP EA NUTE 1997-11-20 18:00:00 TS -19.6368 158.553 35 995 bom main 569 563 O_____O_O___O_ jtwc_sh SH051998 -19.3000 159.900 40 0 -19.7000 158.300 21 35 995 2.50000 103 103 323 2 7 -19.7000 158.300 35 995 -19.7000 158.300 35 995 -19.7000 158.300 TC 40 995 11 0
1997319S09180 1998 109 SP EA NUTE 1997-11-20 21:00:00 TS -20.1767 158.587 main 563 563 P_____PIP___P_ SH051998 -19.6701 160.145 30 -1 -20.2400 158.392 21 35 997 107 107 269 -20.2400 158.392 30 997 -20.2400 158.392 30 997 -20.2400 158.392 TC 35 997 9 176
1997319S09180 1998 109 SP EA NUTE 1997-11-21 00:00:00 TS -20.5600 158.627 35 1000 bom main 563 563 O_____O_O___O_ jtwc_sh SH051998 -20.0000 160.400 20 -1 -20.6000 158.500 21 35 1000 2.00000 112 112 215 4 6 -20.6000 158.500 25 1000 -20.6000 158.500 25 1000 -20.6000 158.500 TC 30 1000 5 195
1997319S09180 1998 109 SP EA NUTE 1997-11-21 03:00:00 TS -20.6521 158.444 main 584 573 ______PIP___P_ SH051998 -1 -20.6825 158.528 21 30 1000 188 -20.6370 158.403 22 1001 -20.6370 158.403 22 1001 -20.6825 158.528 TC 30 1000 1 251
1997319S09180 1998 109 SP EA NUTE 1997-11-21 06:00:00 TS -20.6000 158.500 25 1000 bom main 573 522 ______O_O___O_ -1 -20.6000 158.500 20 25 1000 1.50000 161 3 6 -20.6000 158.500 20 1002 -20.6000 158.500 20 1002 -20.6000 158.500 TC 30 1000 6 98
1997319S09180 1998 109 SP EA NUTE 1997-11-21 09:00:00 NR -20.7391 159.094 main 512 433 _______IP_____ -1 20 -20.7391 159.094 17 1003 -20.7391 159.094 17 1003 TC 15 106
1997319S09180 1998 109 SP MM NUTE 1997-11-21 12:00:00 NR -21.0000 160.000 15 1004 nadi main 423 ________O_____ -1 -21.0000 160.000 15 1004 -21.0000 160.000 15 1004 18 107

Digital Typhoon Data and Search

About IBTrACS Database

This database is a web-friendly format of International Best Track Archive for Climate Stewardship (IBTrACS), a global best track data archive curated by NOAA dating back to 1842.

Updated: 2021-10-21